Acacia Lake, Texas
Current Conditions -  °F | °C
As of 7:53 PM on Saturday 25 Oct 2014 (Local Time) from KBRO Reporting Station
Clear Clear  
Wind Chill: 72°   Ceiling: Unl
Heat Index: 72°   Visibility: 10mi
Dew Point: 66°   Wind: 6mph
Humidity: 81%   Direction: 80°E
Pressure: 30.09"   Gusts: NA
Location:  26.0002°N, 97.5729°W
Report Text: KBRO 260053Z 08005KT 10SM CLR 22/19 A3009 RMK AO2 SLP189 T02220189 $
Loading
Personal Weather Stations






























Interactive Weather Map
Tropical Storm Tracking
New forecast layout! Learn more

10-Day Weather Forecast

Advertisements
Track Severe Weather on mobile